createdAt,value
2023-02-11T00:01:10.576Z,103502.16
2023-02-11T00:03:38.811Z,103500.34
2023-02-11T00:06:09.381Z,103495.22
2023-02-11T00:08:37.025Z,103489.41
2023-02-11T00:11:04.634Z,103499.03
2023-02-11T00:13:31.719Z,103498.22
2023-02-11T00:15:58.899Z,103504.41
2023-02-11T00:18:26.062Z,103506.00
2023-02-11T00:20:53.675Z,103498.69
2023-02-11T00:23:20.772Z,103495.94
2023-02-11T00:25:47.856Z,103501.69
2023-02-11T00:28:15.020Z,103493.91
2023-02-11T00:30:42.299Z,103503.13
2023-02-11T00:33:09.530Z,103500.34
2023-02-11T00:35:38.579Z,103495.91
2023-02-11T00:38:08.105Z,103505.69
2023-02-11T00:40:35.223Z,103507.03
2023-02-11T00:43:03.959Z,103519.03
2023-02-11T00:45:31.228Z,103519.28
2023-02-11T00:47:58.358Z,103501.63
2023-02-11T00:50:25.565Z,103505.69
2023-02-11T00:52:52.682Z,103511.81
2023-02-11T00:55:19.768Z,103511.56
2023-02-11T00:57:46.866Z,103517.44
2023-02-11T01:00:16.933Z,103514.38
2023-02-11T01:02:45.177Z,103516.81
2023-02-11T01:05:12.357Z,103516.75
2023-02-11T01:07:39.480Z,103516.56
2023-02-11T01:10:06.668Z,103520.47
2023-02-11T01:12:36.252Z,103513.53
2023-02-11T01:15:04.678Z,103520.31
2023-02-11T01:17:34.673Z,103521.41
2023-02-11T01:20:07.736Z,103517.38
2023-02-11T01:22:37.368Z,103515.78
2023-02-11T01:25:04.699Z,103515.75
2023-02-11T01:27:32.024Z,103518.84
2023-02-11T01:29:59.166Z,103512.69
2023-02-11T01:32:26.308Z,103512.56
2023-02-11T01:34:54.528Z,103509.13
2023-02-11T01:37:21.634Z,103499.25
2023-02-11T01:39:48.865Z,103492.63
2023-02-11T01:42:18.450Z,103491.16
2023-02-11T01:44:45.645Z,103488.66
2023-02-11T01:47:12.736Z,103482.84
2023-02-11T01:49:44.762Z,103474.75
2023-02-11T01:52:20.148Z,103476.22
2023-02-11T01:55:11.015Z,103471.91
2023-02-11T01:57:41.139Z,103461.09
2023-02-11T02:00:35.589Z,103461.66
2023-02-11T02:03:22.505Z,103448.69
2023-02-11T02:06:06.396Z,103443.03
2023-02-11T02:08:46.844Z,103445.03
2023-02-11T02:11:14.020Z,103436.53
2023-02-11T02:13:41.650Z,103442.75
2023-02-11T02:16:14.144Z,103448.13
2023-02-11T02:18:41.258Z,103448.66
2023-02-11T02:22:04.732Z,103447.66
2023-02-11T02:24:50.374Z,103446.94
2023-02-11T02:27:48.692Z,103440.88
2023-02-11T02:30:37.743Z,103437.75
2023-02-11T02:33:26.515Z,103438.19
2023-02-11T02:35:56.366Z,103436.78
2023-02-11T02:38:30.494Z,103436.53
2023-02-11T02:41:15.564Z,103441.38
2023-02-11T02:43:49.756Z,103429.44
2023-02-11T02:46:24.145Z,103426.97
2023-02-11T02:48:53.185Z,103427.44
2023-02-11T02:51:35.586Z,103424.09
2023-02-11T02:54:30.651Z,103426.38
2023-02-11T02:57:16.217Z,103414.38
2023-02-11T02:59:55.531Z,103413.63
2023-02-11T03:02:33.857Z,103415.91
2023-02-11T03:05:31.233Z,103420.63
2023-02-11T03:08:09.156Z,103411.53
2023-02-11T03:10:45.314Z,103412.38
2023-02-11T03:13:16.962Z,103414.09
2023-02-11T03:15:57.166Z,103406.22
2023-02-11T03:18:27.554Z,103410.38
2023-02-11T03:20:56.813Z,103408.50
2023-02-11T03:23:29.496Z,103408.50
2023-02-11T03:26:02.767Z,103407.03
2023-02-11T03:28:35.588Z,103407.69
2023-02-11T03:31:27.903Z,103399.72
2023-02-11T03:34:10.256Z,103402.63
2023-02-11T03:36:59.817Z,103399.97
2023-02-11T03:39:35.915Z,103401.97
2023-02-11T03:42:05.844Z,103395.50
2023-02-11T03:44:40.043Z,103393.72
2023-02-11T03:47:10.142Z,103388.56
2023-02-11T03:49:39.781Z,103390.72
2023-02-11T03:52:11.201Z,103392.41
2023-02-11T03:54:42.098Z,103385.09
2023-02-11T03:57:09.243Z,103385.03
2023-02-11T03:59:52.693Z,103385.59
2023-02-11T04:02:20.824Z,103391.91
2023-02-11T04:04:48.033Z,103392.59
2023-02-11T04:07:15.151Z,103376.59
2023-02-11T04:09:42.250Z,103382.31
2023-02-11T04:12:09.368Z,103383.78
2023-02-11T04:14:36.634Z,103380.16
2023-02-11T04:17:04.148Z,103383.41
2023-02-11T04:19:31.258Z,103379.03
2023-02-11T04:21:58.470Z,103386.75
2023-02-11T04:24:25.625Z,103379.84
2023-02-11T04:26:52.796Z,103376.69
2023-02-11T04:29:19.991Z,103373.97
2023-02-11T04:31:47.574Z,103371.88
2023-02-11T04:34:14.982Z,103371.28
2023-02-11T04:36:42.070Z,103368.44
2023-02-11T04:39:09.365Z,103368.22
2023-02-11T04:41:36.437Z,103373.72
2023-02-11T04:44:04.087Z,103364.88
2023-02-11T04:46:31.225Z,103365.09
2023-02-11T04:48:58.332Z,103365.41
2023-02-11T04:51:25.922Z,103351.00
2023-02-11T04:53:53.078Z,103348.63
2023-02-11T04:56:20.250Z,103360.03
2023-02-11T04:58:47.378Z,103354.34
2023-02-11T05:01:16.181Z,103353.84
2023-02-11T05:03:43.706Z,103361.50
2023-02-11T05:06:11.711Z,103356.72
2023-02-11T05:08:39.157Z,103359.44
2023-02-11T05:11:07.508Z,103358.84
2023-02-11T05:13:34.698Z,103357.78
2023-02-11T05:16:01.846Z,103363.44
2023-02-11T05:18:29.532Z,103372.34
2023-02-11T05:20:56.783Z,103370.75
2023-02-11T05:23:23.870Z,103374.47
2023-02-11T05:25:51.229Z,103371.47
2023-02-11T05:28:19.056Z,103376.84
2023-02-11T05:30:46.174Z,103377.88
2023-02-11T05:33:13.300Z,103372.69
2023-02-11T05:35:40.363Z,103368.53
2023-02-11T05:38:07.432Z,103368.72
2023-02-11T05:40:34.527Z,103378.06
2023-02-11T05:43:01.748Z,103376.06
2023-02-11T05:45:29.194Z,103371.88
2023-02-11T05:47:57.421Z,103377.16
2023-02-11T05:50:24.605Z,103367.06
2023-02-11T05:52:53.380Z,103364.34
2023-02-11T05:55:20.546Z,103368.53
2023-02-11T05:57:47.719Z,103363.25
2023-02-11T06:00:15.241Z,103367.41
2023-02-11T06:02:42.701Z,103363.25
2023-02-11T06:05:09.942Z,103364.19
2023-02-11T06:07:37.129Z,103365.16
2023-02-11T06:10:04.550Z,103369.94
2023-02-11T06:12:31.624Z,103377.03
2023-02-11T06:14:58.702Z,103373.13
2023-02-11T06:17:25.770Z,103365.09
2023-02-11T06:19:52.824Z,103375.75
2023-02-11T06:22:19.908Z,103370.38
2023-02-11T06:25:00.736Z,103367.34
2023-02-11T06:27:29.148Z,103364.38
2023-02-11T06:29:56.302Z,103363.22
2023-02-11T06:32:43.403Z,103361.31
2023-02-11T06:35:12.065Z,103358.25
2023-02-11T06:37:40.888Z,103360.16
2023-02-11T06:40:09.572Z,103359.38
2023-02-11T06:42:38.698Z,103366.53
2023-02-11T06:45:08.935Z,103360.41
2023-02-11T06:47:36.931Z,103361.53
2023-02-11T06:50:04.442Z,103369.06
2023-02-11T06:52:32.182Z,103357.66
2023-02-11T06:54:59.401Z,103360.38
2023-02-11T06:57:26.468Z,103369.88
2023-02-11T06:59:53.579Z,103362.50
2023-02-11T07:02:21.229Z,103362.50
2023-02-11T07:04:49.367Z,103363.94
2023-02-11T07:07:16.493Z,103362.66
2023-02-11T07:09:43.625Z,103365.59
2023-02-11T07:12:10.765Z,103366.78
2023-02-11T07:14:37.948Z,103374.19
2023-02-11T07:17:05.194Z,103369.38
2023-02-11T07:19:32.298Z,103365.63
2023-02-11T07:21:59.391Z,103366.91
2023-02-11T07:24:26.686Z,103361.72
2023-02-11T07:26:54.068Z,103365.03
2023-02-11T07:29:21.563Z,103360.63
2023-02-11T07:31:48.846Z,103357.53
2023-02-11T07:34:16.120Z,103358.22
2023-02-11T07:36:45.017Z,103357.00
2023-02-11T07:39:12.460Z,103352.28
2023-02-11T07:41:39.602Z,103362.97
2023-02-11T07:44:06.960Z,103371.31
2023-02-11T07:46:35.641Z,103367.53
2023-02-11T07:49:03.180Z,103369.28
2023-02-11T07:51:31.381Z,103372.22
2023-02-11T07:53:59.797Z,103369.94
2023-02-11T07:56:28.255Z,103364.22
2023-02-11T07:58:56.849Z,103356.69
2023-02-11T08:01:28.205Z,103358.72
2023-02-11T08:03:56.970Z,103373.06
2023-02-11T08:06:27.340Z,103376.16
2023-02-11T08:08:54.481Z,103381.00
2023-02-11T08:11:26.627Z,103375.25
2023-02-11T08:13:54.543Z,103386.97
2023-02-11T08:16:29.808Z,103386.63
2023-02-11T08:19:00.477Z,103381.84
2023-02-11T08:21:28.115Z,103379.63
2023-02-11T08:23:55.454Z,103379.06
2023-02-11T08:26:26.535Z,103375.75
2023-02-11T08:28:55.082Z,103372.53
2023-02-11T08:31:27.615Z,103388.53
2023-02-11T08:33:57.875Z,103392.28
2023-02-11T08:36:29.015Z,103389.91
2023-02-11T08:39:16.081Z,103392.75
2023-02-11T08:41:46.836Z,103395.44
2023-02-11T08:44:14.030Z,103398.31
2023-02-11T08:46:41.123Z,103397.84
2023-02-11T08:49:09.034Z,103393.63
2023-02-11T08:51:36.145Z,103387.88
2023-02-11T08:54:03.453Z,103389.69
2023-02-11T08:56:32.348Z,103387.88
2023-02-11T08:58:59.438Z,103387.28
2023-02-11T09:01:31.156Z,103390.13
2023-02-11T09:03:58.779Z,103386.00
2023-02-11T09:06:26.751Z,103380.78
2023-02-11T09:08:57.231Z,103387.78
2023-02-11T09:11:30.828Z,103381.72
2023-02-11T09:13:59.575Z,103381.00
2023-02-11T09:16:30.000Z,103387.19
2023-02-11T09:18:58.911Z,103388.97
2023-02-11T09:21:26.442Z,103388.19
2023-02-11T09:23:54.344Z,103381.22
2023-02-11T09:26:29.449Z,103382.13
2023-02-11T09:28:57.199Z,103383.03
2023-02-11T09:31:26.673Z,103388.28
2023-02-11T09:33:57.133Z,103385.63
2023-02-11T09:36:33.925Z,103380.41
2023-02-11T09:39:02.342Z,103374.31
2023-02-11T09:42:01.584Z,103367.28
2023-02-11T09:44:35.429Z,103366.41
2023-02-11T09:47:22.668Z,103363.75
2023-02-11T09:50:12.349Z,103372.53
2023-02-11T09:53:13.242Z,103361.16
2023-02-11T09:55:44.843Z,103357.63
2023-02-11T09:58:19.700Z,103362.88
2023-02-11T10:01:10.245Z,103354.97
2023-02-11T10:04:14.062Z,103355.84
2023-02-11T10:06:54.276Z,103355.03
2023-02-11T10:09:47.361Z,103348.00
2023-02-11T10:12:32.692Z,103353.22
2023-02-11T10:15:08.564Z,103358.47
2023-02-11T10:17:49.634Z,103356.69
2023-02-11T10:20:17.208Z,103354.88
2023-02-11T10:22:54.754Z,103348.63
2023-02-11T10:25:26.051Z,103343.16
2023-02-11T10:27:57.790Z,103350.19
2023-02-11T10:30:32.992Z,103339.78
2023-02-11T10:33:15.064Z,103350.19
2023-02-11T10:35:43.820Z,103350.97
2023-02-11T10:38:11.494Z,103351.00
2023-02-11T10:40:38.741Z,103346.50
2023-02-11T10:43:13.412Z,103342.06
2023-02-11T10:45:45.095Z,103336.75
2023-02-11T10:48:41.492Z,103325.34
2023-02-11T10:51:28.371Z,103326.81
2023-02-11T10:54:04.587Z,103316.97
2023-02-11T10:56:37.044Z,103313.66
2023-02-11T10:59:24.335Z,103311.06
2023-02-11T11:01:56.225Z,103303.78
2023-02-11T11:04:38.263Z,103304.50
2023-02-11T11:07:17.915Z,103308.69
2023-02-11T11:09:52.715Z,103301.56
2023-02-11T11:12:45.965Z,103293.41
2023-02-11T11:15:23.483Z,103286.13
2023-02-11T11:18:22.512Z,103292.94
2023-02-11T11:21:17.952Z,103286.78
2023-02-11T11:23:52.642Z,103276.72
2023-02-11T11:26:20.264Z,103274.78
2023-02-11T11:28:55.370Z,103274.28
2023-02-11T11:31:30.240Z,103266.84
2023-02-11T11:34:00.503Z,103270.19
2023-02-11T11:36:37.256Z,103270.91
2023-02-11T11:39:19.585Z,103260.19
2023-02-11T11:41:56.482Z,103250.69
2023-02-11T11:44:32.594Z,103252.66
2023-02-11T11:47:11.574Z,103239.03
2023-02-11T11:49:47.530Z,103238.94
2023-02-11T11:52:46.332Z,103242.63
2023-02-11T11:55:20.590Z,103239.81
2023-02-11T11:57:48.956Z,103229.84
2023-02-11T12:00:37.624Z,103230.78
2023-02-11T12:03:27.859Z,103231.84
2023-02-11T12:06:11.606Z,103228.16
2023-02-11T12:08:57.053Z,103225.00
2023-02-11T12:11:29.957Z,103222.19
2023-02-11T12:14:18.080Z,103212.97
2023-02-11T12:17:01.504Z,103214.69
2023-02-11T12:19:59.268Z,103200.59
2023-02-11T12:22:58.301Z,103203.31
2023-02-11T12:25:27.481Z,103195.53
2023-02-11T12:28:01.531Z,103182.75
2023-02-11T12:30:40.538Z,103180.75
2023-02-11T12:33:22.646Z,103180.03
2023-02-11T12:35:59.173Z,103188.25
2023-02-11T12:38:42.060Z,103185.66
2023-02-11T12:41:49.242Z,103185.84
2023-02-11T12:44:40.630Z,103183.78
2023-02-11T12:47:24.860Z,103182.63
2023-02-11T12:50:21.032Z,103169.63
2023-02-11T12:52:59.900Z,103151.66
2023-02-11T12:55:30.036Z,103150.22
2023-02-11T12:57:59.525Z,103139.88
2023-02-11T13:00:36.404Z,103133.44
2023-02-11T13:03:16.744Z,103135.53
2023-02-11T13:05:51.853Z,103124.03
2023-02-11T13:08:35.317Z,103122.38
2023-02-11T13:11:07.974Z,103117.56
2023-02-11T13:13:48.986Z,103116.91
2023-02-11T13:16:42.626Z,103105.41
2023-02-11T13:19:12.750Z,103103.84
2023-02-11T13:21:55.907Z,103099.94
2023-02-11T13:24:39.197Z,103100.84
2023-02-11T13:27:26.556Z,103097.97
2023-02-11T13:30:11.454Z,103097.47
2023-02-11T13:33:00.520Z,103103.50
2023-02-11T13:35:31.832Z,103099.28
2023-02-11T13:38:01.188Z,103095.63
2023-02-11T13:40:33.102Z,103094.22
2023-02-11T13:43:03.036Z,103098.09
2023-02-11T13:45:36.069Z,103099.34
2023-02-11T13:48:06.919Z,103093.63
2023-02-11T13:50:39.699Z,103092.59
2023-02-11T13:53:08.768Z,103084.56
2023-02-11T13:55:36.103Z,103094.88
2023-02-11T13:58:05.961Z,103094.00
2023-02-11T14:00:36.132Z,103097.16
2023-02-11T14:03:30.862Z,103090.81
2023-02-11T14:06:28.583Z,103092.06
2023-02-11T14:09:11.314Z,103093.03
2023-02-11T14:11:41.618Z,103083.06
2023-02-11T14:14:30.552Z,103092.47
2023-02-11T14:17:06.794Z,103084.47
2023-02-11T14:19:36.364Z,103089.09
2023-02-11T14:22:16.551Z,103079.22
2023-02-11T14:24:53.886Z,103074.09
2023-02-11T14:27:29.570Z,103073.06
2023-02-11T14:30:26.274Z,103077.75
2023-02-11T14:33:06.306Z,103070.41
2023-02-11T14:35:40.478Z,103077.25
2023-02-11T14:38:31.642Z,103058.00
2023-02-11T14:41:09.382Z,103053.34
2023-02-11T14:43:42.901Z,103060.66
2023-02-11T14:46:10.090Z,103065.91
2023-02-11T14:48:39.032Z,103063.22
2023-02-11T14:51:14.531Z,103064.06
2023-02-11T14:53:49.545Z,103063.50
2023-02-11T14:56:22.268Z,103054.75
2023-02-11T14:58:51.913Z,103058.31
2023-02-11T15:01:36.140Z,103047.44
2023-02-11T15:04:05.703Z,103048.72
2023-02-11T15:06:37.691Z,103029.66
2023-02-11T15:09:17.024Z,103039.91
2023-02-11T15:11:47.719Z,103032.81
2023-02-11T15:14:25.602Z,103035.22
2023-02-11T15:16:55.843Z,103034.03
2023-02-11T15:19:28.876Z,103034.88
2023-02-11T15:21:56.896Z,103033.31
2023-02-11T15:24:25.718Z,103026.31
2023-02-11T15:26:56.715Z,103033.88
2023-02-11T15:29:26.689Z,103028.72
2023-02-11T15:32:14.787Z,103025.16
2023-02-11T15:34:43.099Z,103030.44
2023-02-11T15:37:31.727Z,103035.25
2023-02-11T15:40:16.005Z,103042.59
2023-02-11T15:42:58.501Z,103040.44
2023-02-11T15:45:38.520Z,103035.84
2023-02-11T15:48:31.708Z,103028.81
2023-02-11T15:51:02.400Z,103031.63
2023-02-11T15:53:33.441Z,103029.41
2023-02-11T15:56:09.946Z,103025.00
2023-02-11T15:58:40.151Z,103024.19
2023-02-11T16:01:08.776Z,103027.09
2023-02-11T16:03:36.246Z,103034.63
2023-02-11T16:06:15.340Z,103038.38
2023-02-11T16:08:43.142Z,103034.91
2023-02-11T16:11:26.486Z,103032.25
2023-02-11T16:13:53.585Z,103034.78
2023-02-11T16:16:26.144Z,103037.03
2023-02-11T16:19:04.725Z,103031.28
2023-02-11T16:21:38.992Z,103023.78
2023-02-11T16:24:08.259Z,103032.84
2023-02-11T16:26:43.107Z,103032.22
2023-02-11T16:29:15.766Z,103031.63
2023-02-11T16:31:45.954Z,103027.41
2023-02-11T16:34:15.458Z,103039.03
2023-02-11T16:36:42.961Z,103033.22
2023-02-11T16:39:10.671Z,103034.31
2023-02-11T16:41:37.843Z,103040.56
2023-02-11T16:44:05.118Z,103032.75
2023-02-11T16:46:33.421Z,103018.88
2023-02-11T16:49:20.280Z,103015.53
2023-02-11T16:51:50.235Z,103019.09
2023-02-11T16:54:17.973Z,103027.97
2023-02-11T16:56:45.400Z,103027.25
2023-02-11T16:59:12.610Z,103016.78
2023-02-11T17:01:41.581Z,103020.34
2023-02-11T17:04:16.591Z,103024.78
2023-02-11T17:06:43.685Z,103026.56
2023-02-11T17:09:20.655Z,103032.69
2023-02-11T17:11:48.632Z,103031.84
2023-02-11T17:14:15.920Z,103032.72
2023-02-11T17:16:43.749Z,103031.00
2023-02-11T17:19:16.850Z,103024.94
2023-02-11T17:21:45.801Z,103036.31
2023-02-11T17:24:14.994Z,103032.00
2023-02-11T17:26:43.466Z,103039.00
2023-02-11T17:29:13.808Z,103037.22
2023-02-11T17:31:41.288Z,103038.13
2023-02-11T17:34:08.657Z,103037.22
2023-02-11T17:36:36.540Z,103039.81
2023-02-11T17:39:07.666Z,103042.44
2023-02-11T17:41:37.041Z,103034.56
2023-02-11T17:44:04.864Z,103040.66
2023-02-11T17:46:32.319Z,103036.25
2023-02-11T17:48:59.596Z,103036.22
2023-02-11T17:51:35.848Z,103042.38
2023-02-11T17:54:11.860Z,103043.19
2023-02-11T17:56:39.227Z,103053.66
2023-02-11T17:59:08.592Z,103048.38
2023-02-11T18:01:37.710Z,103043.19
2023-02-11T18:04:05.501Z,103040.63
2023-02-11T18:06:36.373Z,103043.25
2023-02-11T18:09:04.348Z,103051.94
2023-02-11T18:11:33.676Z,103051.03
2023-02-11T18:14:02.610Z,103050.06
2023-02-11T18:16:30.446Z,103054.41
2023-02-11T18:18:58.816Z,103062.19
2023-02-11T18:21:26.376Z,103063.88
2023-02-11T18:23:53.747Z,103061.97
2023-02-11T18:26:21.460Z,103054.03
2023-02-11T18:28:48.579Z,103054.88
2023-02-11T18:31:15.882Z,103048.63
2023-02-11T18:33:43.182Z,103044.25
2023-02-11T18:36:14.838Z,103049.38
2023-02-11T18:38:44.083Z,103065.06
2023-02-11T18:41:12.267Z,103060.72
2023-02-11T18:43:40.112Z,103065.03
2023-02-11T18:46:10.608Z,103059.81
2023-02-11T18:48:38.726Z,103059.69
2023-02-11T18:51:14.904Z,103064.75
2023-02-11T18:53:43.116Z,103053.25
2023-02-11T18:56:22.077Z,103053.16
2023-02-11T18:58:51.337Z,103059.97
2023-02-11T19:01:21.239Z,103061.53
2023-02-11T19:03:48.641Z,103054.56
2023-02-11T19:06:27.024Z,103051.84
2023-02-11T19:08:58.277Z,103054.47
2023-02-11T19:11:46.416Z,103049.22
2023-02-11T19:14:16.428Z,103054.38
2023-02-11T19:16:46.048Z,103052.56
2023-02-11T19:19:13.845Z,103059.38
2023-02-11T19:21:43.633Z,103061.72
2023-02-11T19:24:12.178Z,103058.97
2023-02-11T19:26:39.304Z,103058.81
2023-02-11T19:29:06.427Z,103053.69
2023-02-11T19:31:34.087Z,103056.19
2023-02-11T19:34:02.693Z,103057.63
2023-02-11T19:36:30.060Z,103060.22
2023-02-11T19:39:00.860Z,103057.38
2023-02-11T19:41:28.910Z,103046.16
2023-02-11T19:43:56.738Z,103052.28
2023-02-11T19:46:25.591Z,103054.88
2023-02-11T19:48:53.145Z,103051.47
2023-02-11T19:51:21.287Z,103038.53
2023-02-11T19:53:48.945Z,103042.78
2023-02-11T19:56:16.080Z,103043.53
2023-02-11T19:58:43.637Z,103033.72
2023-02-11T20:01:10.655Z,103054.47
2023-02-11T20:03:40.746Z,103049.19
2023-02-11T20:06:13.811Z,103048.28
2023-02-11T20:08:41.253Z,103055.19
2023-02-11T20:11:11.499Z,103059.38
2023-02-11T20:13:39.372Z,103058.44
2023-02-11T20:16:19.683Z,103067.13
2023-02-11T20:18:48.753Z,103066.25
2023-02-11T20:21:24.438Z,103053.34
2023-02-11T20:23:52.407Z,103066.25
2023-02-11T20:26:22.440Z,103061.91
2023-02-11T20:28:50.765Z,103055.03
2023-02-11T20:31:18.682Z,103045.63
2023-02-11T20:33:46.253Z,103056.06
2023-02-11T20:36:17.655Z,103054.91
2023-02-11T20:38:44.934Z,103054.22
2023-02-11T20:41:15.739Z,103054.34
2023-02-11T20:43:48.168Z,103062.81
2023-02-11T20:46:17.612Z,103064.41
2023-02-11T20:48:44.839Z,103055.59
2023-02-11T20:51:17.788Z,103053.72
2023-02-11T20:53:51.204Z,103042.84
2023-02-11T20:56:21.486Z,103030.19
2023-02-11T20:58:49.097Z,103037.22
2023-02-11T21:01:25.168Z,103035.22
2023-02-11T21:04:02.156Z,103043.75
2023-02-11T21:06:36.958Z,103044.25
2023-02-11T21:09:05.802Z,103038.91
2023-02-11T21:11:33.011Z,103040.69
2023-02-11T21:14:00.436Z,103044.03
2023-02-11T21:16:28.035Z,103045.03
2023-02-11T21:18:55.380Z,103033.94
2023-02-11T21:21:22.527Z,103033.97
2023-02-11T21:23:50.092Z,103035.03
2023-02-11T21:26:17.278Z,103037.50
2023-02-11T21:28:44.529Z,103036.66
2023-02-11T21:31:21.965Z,103040.34
2023-02-11T21:33:50.480Z,103037.00
2023-02-11T21:36:17.850Z,103032.75
2023-02-11T21:38:45.041Z,103037.25
2023-02-11T21:41:12.238Z,103042.38
2023-02-11T21:43:39.291Z,103042.31
2023-02-11T21:46:09.732Z,103041.50
2023-02-11T21:48:37.001Z,103033.38
2023-02-11T21:51:13.388Z,103045.97
2023-02-11T21:53:40.465Z,103049.97
2023-02-11T21:56:16.912Z,103062.78
2023-02-11T21:58:45.486Z,103060.16
2023-02-11T22:01:33.580Z,103056.69
2023-02-11T22:04:01.575Z,103056.97
2023-02-11T22:06:32.861Z,103049.19
2023-02-11T22:09:06.445Z,103042.16
2023-02-11T22:11:33.643Z,103036.03
2023-02-11T22:14:00.965Z,103043.72
2023-02-11T22:16:30.212Z,103041.91
2023-02-11T22:18:58.861Z,103054.78
2023-02-11T22:21:26.210Z,103052.19
2023-02-11T22:23:54.720Z,103047.91
2023-02-11T22:26:23.304Z,103042.59
2023-02-11T22:28:51.178Z,103052.34
2023-02-11T22:31:21.252Z,103057.66
2023-02-11T22:33:48.864Z,103049.84
2023-02-11T22:36:22.512Z,103053.84
2023-02-11T22:38:50.272Z,103049.25
2023-02-11T22:41:18.317Z,103047.00
2023-02-11T22:43:45.734Z,103045.50
2023-02-11T22:46:16.847Z,103050.03
2023-02-11T22:48:44.021Z,103048.09
2023-02-11T22:51:14.421Z,103047.38
2023-02-11T22:53:43.588Z,103047.41
2023-02-11T22:56:15.381Z,103050.81
2023-02-11T22:58:43.161Z,103050.78
2023-02-11T23:01:11.132Z,103048.41
2023-02-11T23:03:39.104Z,103039.25
2023-02-11T23:06:07.456Z,103044.63
2023-02-11T23:08:34.927Z,103049.03
2023-02-11T23:11:07.631Z,103045.00
2023-02-11T23:13:36.767Z,103038.81
2023-02-11T23:16:06.595Z,103038.91
2023-02-11T23:18:35.446Z,103034.66
2023-02-11T23:21:12.699Z,103033.75
2023-02-11T23:23:40.007Z,103038.72
2023-02-11T23:26:13.686Z,103040.88
2023-02-11T23:28:41.380Z,103045.75
2023-02-11T23:31:20.044Z,103043.13
2023-02-11T23:33:47.764Z,103044.13
2023-02-11T23:36:15.761Z,103039.06
2023-02-11T23:38:43.306Z,103042.56
2023-02-11T23:41:11.255Z,103032.47
2023-02-11T23:43:38.787Z,103036.56
2023-02-11T23:46:06.978Z,103040.78
2023-02-11T23:48:35.962Z,103046.94
2023-02-11T23:51:03.636Z,103050.16
2023-02-11T23:53:30.729Z,103042.13
2023-02-11T23:55:57.837Z,103037.72
2023-02-11T23:58:24.967Z,103037.59
